Time;durP1;ratioP1;P1;durP2;ratioP2;P2;SDS_P1;SDS_P2;PMS_P1;PMS_P2;Temp;Humidity;BMP_temperature;BMP_pressure;BME280_temperature;BME280_humidity;BME280_pressure;Samples;Min_cycle;Max_cycle;Signal;HPM_P1;HPM_P2
2023/04/01 00:00:30;;;;;;;0.03;0.03;;;8.30;93.90;;;;;;5059771;28;20032;-74
2023/04/01 00:02:56;;;;;;;1.02;0.20;;;8.30;94.00;;;;;;5058927;28;20101;-74
2023/04/01 00:05:24;;;;;;;0.82;0.20;;;8.20;94.10;;;;;;5057578;28;20496;-75
2023/04/01 00:07:50;;;;;;;1.30;0.20;;;8.20;94.30;;;;;;5059148;28;20024;-75
2023/04/01 00:10:17;;;;;;;0.20;0.10;;;8.20;95.50;;;;;;5038267;28;20486;-75
2023/04/01 00:12:43;;;;;;;2.15;0.30;;;8.20;94.60;;;;;;5053505;28;20063;-75
2023/04/01 00:15:11;;;;;;;0.63;0.10;;;8.20;95.30;;;;;;5058187;28;20131;-75
2023/04/01 00:17:37;;;;;;;0.45;0.10;;;8.10;94.90;;;;;;5084304;28;20021;-74
2023/04/01 00:20:03;;;;;;;0.50;0.30;;;8.10;95.00;;;;;;5083226;28;20028;-74
2023/04/01 00:22:29;;;;;;;0.88;0.20;;;8.10;95.10;;;;;;5079080;28;20044;-75
2023/04/01 00:24:55;;;;;;;0.55;0.30;;;8.00;95.10;;;;;;5076197;28;20046;-75
2023/04/01 00:27:20;;;;;;;0.85;0.25;;;8.00;95.00;;;;;;5071235;28;20021;-75
2023/04/01 00:29:47;;;;;;;2.55;0.57;;;8.00;95.00;;;;;;5070429;28;20057;-75
2023/04/01 00:32:14;;;;;;;0.30;0.20;;;8.00;95.10;;;;;;5072148;28;20029;-75
2023/04/01 00:34:39;;;;;;;2.05;0.28;;;7.90;95.40;;;;;;5057906;28;20029;-75
2023/04/01 00:37:06;;;;;;;0.38;0.20;;;;;;;;;;5052781;28;20489;-75
2023/04/01 00:39:32;;;;;;;2.33;0.60;;;7.80;95.20;;;;;;5053871;28;20017;-75
2023/04/01 00:41:58;;;;;;;0.70;0.20;;;7.80;95.70;;;;;;5072298;28;20039;-75
2023/04/01 00:44:26;;;;;;;2.15;0.40;;;7.80;95.70;;;;;;5057141;28;20093;-75
2023/04/01 00:46:52;;;;;;;1.02;0.40;;;7.70;95.60;;;;;;5059767;28;20025;-75
2023/04/01 00:49:21;;;;;;;3.83;0.52;;;7.70;95.70;;;;;;5051849;28;20021;-75
2023/04/01 00:51:49;;;;;;;1.63;0.50;;;7.70;95.60;;;;;;5069015;28;20106;-75
2023/04/01 00:54:18;;;;;;;0.65;0.25;;;7.70;95.70;;;;;;5070936;28;20530;-75
2023/04/01 00:57:06;;;;;;;0.65;0.20;;;7.70;95.80;;;;;;5071293;28;20024;-75
2023/04/01 00:59:40;;;;;;;1.55;0.28;;;7.70;96.00;;;;;;5051093;28;20056;-76
2023/04/01 01:02:09;;;;;;;0.63;0.28;;;7.70;96.00;;;;;;5051399;28;20025;-75
2023/04/01 01:04:36;;;;;;;2.40;0.43;;;7.70;95.90;;;;;;5051285;28;20077;-76
2023/04/01 01:07:35;;;;;;;1.70;0.30;;;7.80;96.00;;;;;;5052567;28;20020;-75
2023/04/01 01:10:23;;;;;;;1.92;0.30;;;7.80;96.00;;;;;;5051898;28;20032;-75
2023/04/01 01:12:57;;;;;;;1.60;0.40;;;7.80;95.90;;;;;;5053563;28;20039;-75
2023/04/01 01:15:31;;;;;;;2.05;0.32;;;7.90;95.80;;;;;;5072218;28;20019;-76
2023/04/01 01:18:14;;;;;;;1.85;0.60;;;7.90;95.80;;;;;;5071364;28;20029;-76
2023/04/01 01:20:55;;;;;;;2.75;0.77;;;8.00;95.70;;;;;;5070309;28;20021;-75
2023/04/01 01:23:40;;;;;;;1.38;0.28;;;8.00;95.60;;;;;;5071736;28;20044;-76
2023/04/01 01:26:33;;;;;;;0.85;0.25;;;8.00;95.50;;;;;;5053537;28;20029;-76
2023/04/01 01:29:20;;;;;;;2.70;0.70;;;8.10;95.50;;;;;;5053346;28;20295;-75
2023/04/01 01:32:02;;;;;;;2.72;0.40;;;8.10;95.30;;;;;;5071809;28;20048;-76
2023/04/01 01:34:52;;;;;;;1.08;0.30;;;8.10;95.40;;;;;;5071232;28;20033;-75
2023/04/01 01:37:25;;;;;;;1.65;0.50;;;8.10;95.30;;;;;;5071325;28;20013;-75
2023/04/01 01:39:56;;;;;;;3.33;0.40;;;8.10;95.20;;;;;;5071610;28;20040;-75
2023/04/01 01:42:27;;;;;;;1.05;0.50;;;8.10;95.00;;;;;;5053526;28;20473;-75
2023/04/01 01:44:55;;;;;;;3.35;0.70;;;8.10;95.20;;;;;;5062845;28;20040;-76
2023/04/01 01:47:22;;;;;;;1.25;0.52;;;8.00;95.20;;;;;;5037983;28;20021;-76
2023/04/01 01:49:49;;;;;;;1.42;0.40;;;7.90;95.40;;;;;;5050337;28;20021;-75
2023/04/01 01:52:19;;;;;;;0.85;0.30;;;7.90;95.50;;;;;;5050260;28;20518;-75
2023/04/01 01:54:55;;;;;;;0.85;0.40;;;7.80;95.60;;;;;;5050214;28;20045;-75
2023/04/01 01:57:31;;;;;;;1.30;0.35;;;7.80;95.60;;;;;;5054712;28;20040;-75
2023/04/01 02:00:13;;;;;;;0.43;0.17;;;7.90;95.70;;;;;;5053946;28;20126;-75
2023/04/01 02:02:47;;;;;;;1.63;0.50;;;7.90;95.60;;;;;;5053899;28;20025;-75
2023/04/01 02:05:18;;;;;;;1.10;0.32;;;7.90;95.50;;;;;;5053784;28;20127;-76
2023/04/01 02:08:06;;;;;;;2.10;0.45;;;8.00;95.60;;;;;;5059741;28;20024;-75
2023/04/01 02:10:35;;;;;;;1.45;0.28;;;8.00;95.40;;;;;;5073220;28;20021;-75
2023/04/01 02:13:07;;;;;;;0.47;0.25;;;7.90;95.40;;;;;;5073812;28;20028;-75
2023/04/01 02:15:45;;;;;;;0.85;0.30;;;8.00;95.40;;;;;;5065148;28;20023;-77
2023/04/01 02:18:13;;;;;;;0.50;0.20;;;8.00;95.40;;;;;;5067725;28;20025;-75
2023/04/01 02:20:40;;;;;;;0.45;0.25;;;8.00;95.30;;;;;;5053727;28;20029;-75
2023/04/01 02:23:08;;;;;;;2.17;0.22;;;7.90;95.30;;;;;;5053402;28;20082;-76
2023/04/01 02:25:37;;;;;;;0.40;0.15;;;8.00;95.20;;;;;;5053029;28;20031;-75
2023/04/01 02:28:06;;;;;;;0.20;0.20;;;7.90;95.20;;;;;;5037240;28;20023;-75
2023/04/01 02:30:35;;;;;;;1.75;0.28;;;7.90;95.30;;;;;;5073978;28;20023;-75
2023/04/01 02:33:01;;;;;;;1.42;0.17;;;7.90;95.20;;;;;;5073718;28;20040;-75
2023/04/01 02:35:27;;;;;;;0.20;0.10;;;7.90;95.20;;;;;;5075760;28;20024;-75
2023/04/01 02:37:56;;;;;;;1.02;0.13;;;7.90;95.10;;;;;;5078120;28;20115;-76
2023/04/01 02:40:22;;;;;;;0.88;0.30;;;7.90;95.10;;;;;;5058721;28;20350;-76
2023/04/01 02:42:47;;;;;;;1.15;0.30;;;7.90;95.10;;;;;;5081484;28;20040;-76
2023/04/01 02:45:14;;;;;;;0.38;0.20;;;7.80;95.10;;;;;;5060872;28;20037;-76
2023/04/01 02:47:40;;;;;;;1.80;1.27;;;7.80;95.00;;;;;;5058842;28;20469;-76
2023/04/01 02:50:07;;;;;;;0.57;0.20;;;7.90;95.10;;;;;;5057690;28;20032;-76
2023/04/01 02:52:33;;;;;;;1.27;0.20;;;7.80;95.10;;;;;;5054025;28;20040;-76
2023/04/01 02:54:59;;;;;;;2.17;0.13;;;7.90;95.00;;;;;;5052777;28;20029;-75
2023/04/01 02:57:25;;;;;;;0.65;0.20;;;7.90;95.00;;;;;;5053631;28;20500;-76
2023/04/01 02:59:51;;;;;;;2.20;0.30;;;7.80;95.00;;;;;;5061636;28;20050;-75
2023/04/01 03:02:17;;;;;;;0.20;0.20;;;7.90;95.00;;;;;;5073106;28;20416;-75
2023/04/01 03:04:42;;;;;;;0.60;0.20;;;7.90;94.70;;;;;;5072447;28;20021;-76
2023/04/01 03:07:09;;;;;;;1.10;0.30;;;7.90;94.80;;;;;;5072695;28;20384;-76
2023/04/01 03:09:36;;;;;;;0.30;0.08;;;8.00;94.60;;;;;;5070823;28;20104;-75
2023/04/01 03:12:02;;;;;;;0.70;0.10;;;8.00;94.60;;;;;;5052427;28;20115;-76
2023/04/01 03:14:28;;;;;;;1.35;0.10;;;8.00;94.60;;;;;;5067163;28;20137;-76
2023/04/01 03:16:54;;;;;;;0.57;0.13;;;7.90;94.70;;;;;;5053827;28;20121;-76
2023/04/01 03:19:20;;;;;;;1.48;0.10;;;7.80;94.80;;;;;;5052358;28;20044;-75
2023/04/01 03:21:45;;;;;;;0.13;0.13;;;7.90;94.80;;;;;;5070468;28;20032;-75
2023/04/01 03:24:11;;;;;;;0.10;0.10;;;7.80;94.90;;;;;;5071869;28;20393;-75
2023/04/01 03:26:37;;;;;;;0.35;0.10;;;7.90;94.90;;;;;;5072428;28;20452;-75
2023/04/01 03:29:02;;;;;;;1.88;0.20;;;7.90;94.90;;;;;;5072152;28;20108;-77
2023/04/01 03:31:28;;;;;;;0.75;0.22;;;7.80;94.80;;;;;;5053944;28;20040;-75
2023/04/01 03:33:54;;;;;;;0.50;0.10;;;7.80;94.80;;;;;;5053960;28;20455;-75
2023/04/01 03:36:19;;;;;;;1.20;0.10;;;7.80;94.80;;;;;;5072079;28;20481;-76
2023/04/01 03:38:45;;;;;;;0.20;0.10;;;7.70;94.70;;;;;;5072047;28;20033;-75
2023/04/01 03:41:15;;;;;;;0.45;0.10;;;7.60;94.90;;;;;;5072296;28;20063;-75
2023/04/01 03:43:44;;;;;;;0.28;0.10;;;7.60;95.10;;;;;;5074722;28;20043;-75
2023/04/01 03:46:10;;;;;;;0.00;0.00;;;7.50;95.20;;;;;;5066634;28;20082;-76
2023/04/01 03:48:35;;;;;;;1.98;0.10;;;7.50;95.30;;;;;;5061189;28;20025;-76
2023/04/01 03:51:01;;;;;;;0.75;0.08;;;7.50;95.30;;;;;;5035334;28;20017;-75
2023/04/01 03:53:27;;;;;;;0.47;0.17;;;7.50;95.30;;;;;;5052855;28;20040;-74
2023/04/01 03:55:53;;;;;;;0.75;0.20;;;7.50;95.30;;;;;;5051509;28;20025;-75
2023/04/01 03:58:19;;;;;;;0.95;0.00;;;7.50;95.40;;;;;;5035103;28;20033;-75
2023/04/01 04:00:45;;;;;;;0.65;0.20;;;7.50;95.50;;;;;;5052761;28;20021;-75
2023/04/01 04:03:11;;;;;;;2.03;0.00;;;7.50;95.60;;;;;;5071200;28;20039;-75
2023/04/01 04:05:37;;;;;;;0.20;0.10;;;7.50;95.60;;;;;;5053431;28;20457;-75
2023/04/01 04:08:03;;;;;;;0.65;0.10;;;7.40;96.00;;;;;;5073571;28;20051;-75
2023/04/01 04:10:29;;;;;;;0.15;0.10;;;7.40;95.80;;;;;;5055202;28;20024;-75
2023/04/01 04:12:55;;;;;;;0.80;0.10;;;7.40;95.90;;;;;;5044331;28;20025;-75
2023/04/01 04:15:21;;;;;;;1.48;0.30;;;7.30;96.10;;;;;;5069638;28;20036;-75
2023/04/01 04:17:47;;;;;;;1.13;0.20;;;7.30;96.30;;;;;;5055191;28;20025;-75
2023/04/01 04:20:13;;;;;;;0.95;0.30;;;7.30;96.40;;;;;;5052749;28;20051;-75
2023/04/01 04:22:38;;;;;;;1.17;0.40;;;7.30;96.50;;;;;;5060496;28;20036;-75
2023/04/01 04:25:05;;;;;;;0.68;0.20;;;7.30;96.60;;;;;;5072492;28;20032;-76
2023/04/01 04:27:30;;;;;;;1.65;0.10;;;7.40;96.60;;;;;;5073655;28;20025;-76
2023/04/01 04:29:56;;;;;;;1.00;0.20;;;7.40;96.60;;;;;;5072093;28;20483;-76
2023/04/01 04:32:21;;;;;;;0.45;0.32;;;7.50;96.50;;;;;;5068705;28;20025;-75
2023/04/01 04:34:47;;;;;;;0.20;0.10;;;7.50;96.60;;;;;;5051531;28;20021;-76
2023/04/01 04:37:13;;;;;;;0.75;0.20;;;7.50;96.60;;;;;;5055308;28;20545;-75
2023/04/01 04:39:38;;;;;;;3.08;0.47;;;7.40;96.60;;;;;;5062607;28;20094;-75
2023/04/01 04:42:05;;;;;;;1.35;0.20;;;7.40;96.70;;;;;;5072607;28;20025;-75
2023/04/01 04:44:30;;;;;;;0.55;0.20;;;7.40;96.70;;;;;;5087252;28;20134;-77
2023/04/01 04:46:56;;;;;;;0.95;0.17;;;7.50;96.80;;;;;;5074133;28;20377;-75
2023/04/01 04:49:21;;;;;;;0.45;0.40;;;7.50;96.70;;;;;;5076404;28;20021;-75
2023/04/01 04:51:47;;;;;;;0.50;0.17;;;7.60;96.60;;;;;;5076793;28;20088;-75
2023/04/01 04:54:13;;;;;;;1.20;0.20;;;7.60;96.50;;;;;;5070447;28;20136;-75
2023/04/01 04:56:39;;;;;;;0.38;0.30;;;7.70;96.40;;;;;;5087883;28;20044;-74
2023/04/01 04:59:05;;;;;;;0.28;0.10;;;7.80;96.20;;;;;;5082629;28;20024;-74
2023/04/01 05:01:30;;;;;;;1.17;0.57;;;7.80;96.20;;;;;;5068945;28;20025;-74
2023/04/01 05:03:56;;;;;;;0.30;0.30;;;7.90;96.00;;;;;;5051780;28;20021;-75
2023/04/01 05:06:22;;;;;;;0.73;0.47;;;7.90;95.90;;;;;;5056066;28;20506;-75
2023/04/01 05:08:47;;;;;;;1.63;0.68;;;7.90;95.90;;;;;;5071608;28;20140;-75
2023/04/01 05:11:16;;;;;;;1.40;0.50;;;8.00;95.70;;;;;;5044573;28;20037;-75
2023/04/01 05:13:42;;;;;;;1.60;0.38;;;8.00;95.70;;;;;;5060563;28;20472;-75
2023/04/01 05:16:19;;;;;;;2.55;0.93;;;8.00;95.40;;;;;;5058624;28;20338;-76
2023/04/01 05:18:46;;;;;;;1.55;0.30;;;8.00;95.30;;;;;;5064442;28;20195;-74
2023/04/01 05:21:13;;;;;;;1.67;0.50;;;8.10;95.10;;;;;;5064724;28;20028;-74
2023/04/01 05:23:39;;;;;;;1.63;0.20;;;8.10;94.90;;;;;;5052354;28;20024;-75
2023/04/01 05:26:07;;;;;;;0.35;0.30;;;8.20;94.70;;;;;;5071864;28;20029;-74
2023/04/01 05:28:33;;;;;;;2.50;0.20;;;8.20;94.50;;;;;;5072874;28;20472;-74
2023/04/01 05:31:00;;;;;;;1.20;0.30;;;8.20;94.40;;;;;;5073497;28;20119;-76
2023/04/01 05:33:26;;;;;;;2.38;0.30;;;8.30;94.30;;;;;;5061218;28;20028;-75
2023/04/01 05:35:53;;;;;;;1.75;0.30;;;8.30;93.90;;;;;;5076173;28;20033;-76
2023/04/01 05:38:18;;;;;;;1.60;0.40;;;8.40;93.80;;;;;;5063414;28;20033;-76
2023/04/01 05:40:44;;;;;;;2.63;0.43;;;8.50;93.50;;;;;;5042154;28;20029;-76
2023/04/01 05:43:10;;;;;;;2.13;0.38;;;8.50;93.20;;;;;;5060250;28;20052;-75
2023/04/01 05:45:36;;;;;;;0.35;0.20;;;8.50;93.00;;;;;;5066240;28;20040;-75
2023/04/01 05:48:02;;;;;;;0.30;0.10;;;8.60;93.10;;;;;;5076646;28;20027;-74
2023/04/01 05:50:28;;;;;;;0.82;0.20;;;8.60;92.60;;;;;;5077350;28;20025;-76
2023/04/01 05:52:53;;;;;;;0.75;0.22;;;8.70;92.50;;;;;;5076531;28;20027;-75
2023/04/01 05:55:19;;;;;;;0.93;0.13;;;8.70;92.30;;;;;;5075440;28;20040;-75
2023/04/01 05:57:46;;;;;;;1.05;0.20;;;8.70;92.30;;;;;;5076116;28;20232;-75
2023/04/01 06:00:12;;;;;;;1.90;0.40;;;8.70;92.20;;;;;;5057561;28;20051;-75
2023/04/01 06:02:38;;;;;;;1.50;0.30;;;8.70;92.10;;;;;;5075485;28;20025;-75
2023/04/01 06:05:15;;;;;;;1.48;0.30;;;8.70;92.10;;;;;;5056677;28;20365;-76
2023/04/01 06:07:41;;;;;;;1.02;0.40;;;8.70;92.00;;;;;;5075253;28;20080;-75
2023/04/01 06:10:14;;;;;;;2.17;0.30;;;8.70;91.90;;;;;;5073337;28;20168;-74
2023/04/01 06:12:44;;;;;;;;;;;8.70;91.80;;;;;;5057262;28;20024;-75
2023/04/01 06:15:13;;;;;;;1.60;0.20;;;8.70;91.80;;;;;;5070002;28;20338;-75
2023/04/01 06:18:14;;;;;;;1.17;0.60;;;8.60;91.70;;;;;;5072445;28;20126;-75
2023/04/01 06:21:07;;;;;;;1.48;0.40;;;8.70;91.70;;;;;;5056516;28;20028;-74
2023/04/01 06:23:47;;;;;;;0.30;0.30;;;8.70;91.50;;;;;;5074870;28;20449;-75
2023/04/01 06:26:19;;;;;;;1.25;0.30;;;8.70;91.50;;;;;;5074664;28;20104;-75
2023/04/01 06:28:52;;;;;;;0.88;0.30;;;8.80;91.40;;;;;;5062018;28;20029;-74
2023/04/01 06:31:33;;;;;;;0.65;0.40;;;8.70;91.10;;;;;;5054958;28;20029;-75
2023/04/01 06:34:20;;;;;;;1.38;0.63;;;8.80;91.00;;;;;;5053958;28;20043;-75
2023/04/01 06:37:15;;;;;;;3.03;0.57;;;8.80;90.80;;;;;;5037110;28;20072;-76
2023/04/01 06:40:00;;;;;;;1.70;0.43;;;8.80;90.60;;;;;;5054953;28;20021;-75
2023/04/01 06:42:26;;;;;;;1.55;0.43;;;8.80;90.60;;;;;;5052941;28;20021;-73
2023/04/01 06:45:36;;;;;;;1.52;0.40;;;8.80;90.60;;;;;;5077088;28;20027;-75
2023/04/01 06:48:25;;;;;;;1.08;0.40;;;8.80;90.20;;;;;;5035946;28;20037;-75
2023/04/01 06:51:01;;;;;;;0.70;0.30;;;8.80;90.20;;;;;;5059019;28;20120;-74
2023/04/01 06:53:48;;;;;;;2.60;0.30;;;8.80;90.20;;;;;;5062078;28;20013;-74
2023/04/01 06:56:18;;;;;;;1.30;0.25;;;9.00;90.00;;;;;;5056098;28;20070;-75
2023/04/01 06:59:07;;;;;;;1.58;0.40;;;9.00;89.80;;;;;;5054723;28;20048;-74
2023/04/01 07:01:44;;;;;;;1.42;0.50;;;9.10;89.80;;;;;;5061991;28;20054;-75
2023/04/01 07:04:14;;;;;;;0.55;0.30;;;9.40;89.00;;;;;;5038315;28;20109;-76
2023/04/01 07:06:46;;;;;;;2.55;0.40;;;9.60;87.80;;;;;;5053817;28;20124;-75
2023/04/01 07:09:26;;;;;;;3.60;0.52;;;9.80;87.00;;;;;;5053772;28;20043;-75
2023/04/01 07:11:57;;;;;;;1.10;0.45;;;10.00;85.50;;;;;;5053547;28;20509;-75
2023/04/01 07:14:41;;;;;;;0.85;0.40;;;10.10;85.30;;;;;;5067077;28;20016;-76
2023/04/01 07:17:12;;;;;;;0.98;0.28;;;10.40;83.30;;;;;;5057947;28;20138;-76
2023/04/01 07:19:44;;;;;;;1.38;0.38;;;10.50;82.20;;;;;;5044288;28;20036;-75
2023/04/01 07:22:17;;;;;;;1.40;0.50;;;10.60;81.60;;;;;;5052927;28;20033;-75
2023/04/01 07:24:45;;;;;;;0.98;0.50;;;10.70;81.60;;;;;;5035082;28;20157;-76
2023/04/01 07:27:12;;;;;;;1.92;0.47;;;10.80;80.70;;;;;;5052723;28;20033;-74
2023/04/01 07:29:38;;;;;;;0.70;0.30;;;10.70;79.80;;;;;;5052621;28;20025;-75
2023/04/01 07:32:24;;;;;;;2.05;0.68;;;10.70;80.30;;;;;;5053036;28;20021;-75
2023/04/01 07:35:15;;;;;;;1.15;0.20;;;10.70;80.10;;;;;;5053444;28;20029;-76
2023/04/01 07:38:08;;;;;;;0.90;0.20;;;10.90;80.20;;;;;;5052768;28;20087;-74
2023/04/01 07:41:14;;;;;;;0.93;0.57;;;11.20;78.70;;;;;;5034586;28;20020;-76
2023/04/01 07:43:45;;;;;;;0.30;0.17;;;11.30;78.40;;;;;;5050478;28;20511;-75
2023/04/01 07:46:30;;;;;;;0.93;0.30;;;11.40;77.20;;;;;;5045128;28;20028;-76
2023/04/01 07:49:27;;;;;;;0.63;0.20;;;11.40;76.40;;;;;;5071818;28;20044;-76
2023/04/01 07:52:29;;;;;;;1.80;0.22;;;11.60;76.60;;;;;;5070316;28;20024;-75
2023/04/01 07:54:59;;;;;;;;;;;11.70;76.60;;;;;;5070814;28;20029;-75
2023/04/01 07:57:40;;;;;;;0.65;0.20;;;11.80;76.00;;;;;;5053147;28;20254;-77
2023/04/01 08:00:24;;;;;;;0.75;0.47;;;12.00;75.70;;;;;;5071077;28;20115;-76
2023/04/01 08:03:13;;;;;;;0.35;0.30;;;12.20;74.90;;;;;;5072510;28;20028;-76
2023/04/01 08:05:58;;;;;;;1.02;0.40;;;12.20;74.60;;;;;;5071947;28;20497;-77
2023/04/01 08:08:33;;;;;;;0.32;0.20;;;12.20;73.80;;;;;;5058172;28;20072;-77
2023/04/01 08:11:37;;;;;;;0.20;0.20;;;12.10;73.80;;;;;;5052638;28;20025;-77
2023/04/01 08:14:03;;;;;;;1.15;0.35;;;12.00;73.60;;;;;;5050593;28;20523;-76
2023/04/01 08:16:35;;;;;;;0.43;0.20;;;12.00;74.10;;;;;;5062675;28;20031;-76
2023/04/01 08:19:34;;;;;;;0.32;0.20;;;12.00;72.50;;;;;;5071699;28;20027;-77
2023/04/01 08:22:08;;;;;;;0.40;0.20;;;12.00;73.00;;;;;;5052927;28;20032;-76
2023/04/01 08:24:42;;;;;;;0.85;0.40;;;12.00;72.30;;;;;;5053309;28;20446;-76
2023/04/01 08:27:22;;;;;;;2.10;0.30;;;12.10;72.10;;;;;;5052051;28;20105;-76
2023/04/01 08:29:59;;;;;;;0.60;0.20;;;12.30;71.50;;;;;;5071064;28;20013;-76
2023/04/01 08:32:41;;;;;;;1.38;0.47;;;12.50;71.10;;;;;;5070669;28;20200;-76
2023/04/01 08:35:34;;;;;;;0.70;0.50;;;12.50;70.70;;;;;;5070329;28;20044;-76
2023/04/01 08:38:12;;;;;;;1.80;0.30;;;12.90;70.70;;;;;;5070487;28;20052;-76
2023/04/01 08:41:00;;;;;;;1.13;0.10;;;13.30;68.40;;;;;;5056486;28;20017;-75
2023/04/01 08:43:56;;;;;;;0.38;0.15;;;13.40;66.90;;;;;;5080953;28;20025;-75
2023/04/01 08:46:43;;;;;;;2.28;0.40;;;13.40;66.70;;;;;;5068867;28;20178;-76
2023/04/01 08:49:12;;;;;;;0.45;0.45;;;13.30;66.20;;;;;;5071091;28;20023;-76
2023/04/01 08:51:57;;;;;;;0.03;0.03;;;;;;;;;;5070856;28;20016;-76
2023/04/01 08:54:58;;;;;;;0.40;0.20;;;12.80;67.40;;;;;;5070086;28;20021;-76
2023/04/01 08:57:32;;;;;;;0.20;0.20;;;12.70;68.30;;;;;;5065516;28;20021;-76
2023/04/01 09:00:09;;;;;;;0.77;0.40;;;12.80;68.50;;;;;;5050169;28;20029;-77
2023/04/01 09:02:47;;;;;;;1.13;0.38;;;12.80;67.30;;;;;;5050555;28;20024;-76
2023/04/01 09:05:47;;;;;;;0.65;0.30;;;12.90;66.40;;;;;;5052598;28;20028;-76
2023/04/01 09:08:34;;;;;;;0.08;0.03;;;12.80;67.40;;;;;;5054655;28;20024;-76
2023/04/01 09:11:21;;;;;;;0.47;0.30;;;13.00;67.20;;;;;;5061263;28;20473;-75
2023/04/01 09:14:11;;;;;;;0.10;0.10;;;13.10;66.70;;;;;;5074737;28;20063;-77
2023/04/01 09:17:08;;;;;;;0.95;0.50;;;13.10;66.30;;;;;;5047859;28;20025;-77
2023/04/01 09:20:04;;;;;;;0.10;0.10;;;13.30;65.90;;;;;;5074956;28;20024;-77
2023/04/01 09:23:06;;;;;;;0.88;0.20;;;13.80;65.80;;;;;;5074044;28;20032;-76
2023/04/01 09:25:50;;;;;;;1.23;0.30;;;14.20;63.60;;;;;;5053676;28;20202;-75
2023/04/01 09:28:33;;;;;;;0.15;0.15;;;14.20;62.80;;;;;;5056481;28;20033;-77
2023/04/01 09:31:25;;;;;;;0.75;0.20;;;14.10;63.10;;;;;;5074540;28;20044;-76
2023/04/01 09:34:25;;;;;;;0.57;0.50;;;14.10;62.60;;;;;;5074696;28;20524;-77
2023/04/01 09:37:01;;;;;;;0.70;0.40;;;14.10;62.50;;;;;;5077470;28;20052;-77
2023/04/01 09:39:27;;;;;;;0.40;0.30;;;;;;;;;;5086629;28;20032;-76
2023/04/01 09:42:07;;;;;;;0.95;0.38;;;14.30;62.00;;;;;;5069206;28;20480;-77
2023/04/01 09:44:55;;;;;;;0.30;0.20;;;14.40;62.30;;;;;;5062555;28;20029;-76
2023/04/01 09:47:20;;;;;;;2.53;0.47;;;14.60;61.90;;;;;;5082972;28;20104;-75
2023/04/01 09:49:55;;;;;;;0.55;0.30;;;14.70;60.20;;;;;;5080666;28;20060;-76
2023/04/01 09:52:45;;;;;;;0.20;0.20;;;14.70;59.90;;;;;;5073641;28;20028;-76
2023/04/01 09:55:38;;;;;;;0.30;0.30;;;14.70;60.30;;;;;;5091671;28;20036;-75
2023/04/01 09:58:19;;;;;;;1.95;0.38;;;14.50;59.80;;;;;;5074539;28;20416;-76
2023/04/01 10:01:06;;;;;;;1.08;0.25;;;14.50;60.30;;;;;;5074238;28;20103;-76
2023/04/01 10:04:02;;;;;;;0.22;0.20;;;14.60;60.20;;;;;;5074315;28;20074;-77
2023/04/01 10:07:04;;;;;;;0.65;0.20;;;14.60;59.20;;;;;;5075089;28;20055;-75
2023/04/01 10:10:01;;;;;;;0.15;0.10;;;14.50;59.50;;;;;;5075268;28;20028;-76
2023/04/01 10:12:30;;;;;;;0.22;0.20;;;14.20;60.30;;;;;;5028720;28;20028;-75
2023/04/01 10:15:20;;;;;;;0.57;0.30;;;14.20;59.50;;;;;;5066611;28;20033;-75
2023/04/01 10:18:10;;;;;;;0.20;0.13;;;14.20;59.60;;;;;;5056285;28;20480;-77
2023/04/01 10:21:14;;;;;;;2.72;0.20;;;14.00;60.90;;;;;;5054593;28;20440;-76
2023/04/01 10:23:40;;;;;;;0.40;0.20;;;13.90;61.30;;;;;;5036592;28;20025;-75
2023/04/01 10:26:09;;;;;;;1.75;0.28;;;14.00;60.70;;;;;;5057049;28;20041;-75
2023/04/01 10:28:35;;;;;;;0.50;0.30;;;14.00;60.30;;;;;;5055993;28;20025;-77
2023/04/01 10:31:21;;;;;;;2.88;0.30;;;14.10;60.70;;;;;;5055392;28;20028;-76
2023/04/01 10:33:52;;;;;;;0.65;0.20;;;14.20;63.30;;;;;;5054476;28;20040;-76
2023/04/01 10:36:33;;;;;;;0.20;0.20;;;;;;;;;;5054993;28;20079;-77
2023/04/01 10:39:02;;;;;;;0.20;0.20;;;14.10;60.10;;;;;;5058008;28;20025;-75
2023/04/01 10:41:40;;;;;;;0.30;0.30;;;14.10;60.40;;;;;;5056601;28;20489;-75
2023/04/01 10:44:09;;;;;;;0.55;0.30;;;14.10;60.90;;;;;;5066611;28;20028;-76
2023/04/01 10:47:08;;;;;;;2.70;0.57;;;14.10;60.80;;;;;;5077403;28;20382;-76
2023/04/01 10:50:05;;;;;;;0.10;0.10;;;14.10;61.00;;;;;;5043066;28;20048;-76
2023/04/01 10:52:53;;;;;;;0.30;0.30;;;13.90;60.80;;;;;;5057082;28;20025;-76
2023/04/01 10:55:53;;;;;;;0.30;0.30;;;13.80;61.80;;;;;;5036756;28;20423;-76
2023/04/01 10:58:56;;;;;;;0.25;0.20;;;13.70;62.50;;;;;;5054659;28;20029;-77
2023/04/01 11:02:04;;;;;;;0.20;0.20;;;13.80;63.40;;;;;;5054180;28;20051;-74
2023/04/01 11:05:02;;;;;;;0.45;0.30;;;13.80;63.60;;;;;;5055212;28;20017;-76
2023/04/01 11:07:34;;;;;;;0.38;0.38;;;13.80;63.80;;;;;;5064027;28;20160;-76
2023/04/01 11:10:05;;;;;;;0.40;0.40;;;13.80;64.90;;;;;;5074220;28;20059;-76
2023/04/01 11:12:43;;;;;;;0.22;0.20;;;13.70;66.50;;;;;;5073992;28;20025;-77
2023/04/01 11:15:41;;;;;;;0.25;0.25;;;13.50;67.90;;;;;;5068479;28;20075;-76
2023/04/01 11:18:41;;;;;;;0.88;0.40;;;13.30;69.50;;;;;;5052586;28;20053;-77
2023/04/01 11:21:34;;;;;;;0.30;0.30;;;13.20;70.70;;;;;;5055390;28;20119;-75
2023/04/01 11:24:30;;;;;;;0.20;0.20;;;13.20;72.00;;;;;;5048164;28;20120;-76
2023/04/01 11:27:09;;;;;;;0.35;0.20;;;13.50;71.40;;;;;;5073517;28;20381;-75
2023/04/01 11:30:12;;;;;;;0.40;0.25;;;13.60;70.10;;;;;;5073964;28;20387;-75
2023/04/01 11:32:54;;;;;;;0.20;0.20;;;13.60;69.80;;;;;;5073885;28;20120;-75
2023/04/01 11:35:38;;;;;;;0.47;0.40;;;13.90;70.50;;;;;;5074422;28;20078;-77
2023/04/01 11:38:13;;;;;;;0.57;0.40;;;14.20;69.70;;;;;;5069169;28;20048;-75
2023/04/01 11:40:39;;;;;;;0.10;0.10;;;14.30;69.20;;;;;;5058416;28;20123;-75
2023/04/01 11:43:34;;;;;;;0.40;0.35;;;14.20;68.60;;;;;;5065043;28;20075;-75
2023/04/01 11:46:09;;;;;;;0.35;0.30;;;14.20;70.10;;;;;;5072670;28;20155;-76
2023/04/01 11:49:02;;;;;;;0.60;0.45;;;14.00;69.00;;;;;;5079019;28;20032;-74
2023/04/01 11:51:50;;;;;;;0.30;0.30;;;13.80;68.70;;;;;;5089320;28;20044;-76
2023/04/01 11:54:19;;;;;;;0.75;0.30;;;13.50;68.70;;;;;;5080972;28;20070;-76
2023/04/01 11:57:18;;;;;;;2.55;0.93;;;13.20;70.40;;;;;;5063127;28;20371;-74
2023/04/01 12:00:01;;;;;;;0.20;0.20;;;12.80;72.30;;;;;;5078875;28;20035;-76
2023/04/01 12:02:44;;;;;;;0.20;0.20;;;12.30;75.60;;;;;;5073066;28;20029;-76
2023/04/01 12:05:43;;;;;;;0.20;0.20;;;12.10;78.00;;;;;;5054306;28;20031;-76
2023/04/01 12:08:29;;;;;;;0.65;0.20;;;11.80;79.60;;;;;;5072445;28;20469;-77
2023/04/01 12:11:17;;;;;;;0.20;0.20;;;11.60;82.00;;;;;;5072335;28;20112;-75
2023/04/01 12:14:18;;;;;;;0.47;0.30;;;11.30;82.80;;;;;;5072300;28;20024;-74
2023/04/01 12:16:59;;;;;;;0.35;0.30;;;11.10;84.10;;;;;;5049154;28;20037;-75
2023/04/01 12:19:41;;;;;;;0.68;0.32;;;11.10;84.30;;;;;;5052807;28;20039;-76
2023/04/01 12:22:38;;;;;;;0.85;0.40;;;10.90;85.90;;;;;;5041614;28;20036;-74
2023/04/01 12:25:24;;;;;;;0.32;0.30;;;10.90;87.30;;;;;;5071523;28;20036;-75
2023/04/01 12:27:52;;;;;;;0.38;0.38;;;10.80;87.40;;;;;;5072163;28;20090;-76
2023/04/01 12:30:50;;;;;;;0.32;0.30;;;10.70;88.50;;;;;;5072946;28;20016;-76
2023/04/01 12:33:24;;;;;;;0.75;0.40;;;10.70;89.50;;;;;;5069440;28;20071;-75
2023/04/01 12:36:15;;;;;;;0.30;0.30;;;10.70;89.30;;;;;;5072226;28;20049;-77
2023/04/01 12:39:03;;;;;;;1.25;0.30;;;10.60;90.00;;;;;;5071295;28;20032;-76
2023/04/01 12:41:37;;;;;;;0.25;0.20;;;10.70;90.00;;;;;;5072771;28;20614;-75
2023/04/01 12:44:24;;;;;;;0.30;0.30;;;10.70;90.00;;;;;;5072361;28;20017;-76
2023/04/01 12:47:17;;;;;;;0.30;0.30;;;10.60;89.30;;;;;;5066702;28;20424;-74
2023/04/01 12:50:17;;;;;;;0.35;0.22;;;10.50;89.70;;;;;;5089293;28;20040;-75
2023/04/01 12:53:02;;;;;;;0.45;0.28;;;10.40;89.80;;;;;;5054977;28;20040;-75
2023/04/01 12:55:44;;;;;;;0.20;0.20;;;10.40;90.00;;;;;;5056140;28;20365;-76
2023/04/01 12:58:38;;;;;;;0.63;0.32;;;10.30;90.20;;;;;;5072243;28;20048;-75
2023/04/01 13:01:27;;;;;;;0.20;0.20;;;10.30;90.00;;;;;;5044404;28;20042;-76
2023/04/01 13:03:56;;;;;;;0.43;0.28;;;10.30;90.00;;;;;;5072451;28;20036;-76
2023/04/01 13:06:46;;;;;;;1.17;0.28;;;10.20;90.00;;;;;;5072329;28;20071;-76
2023/04/01 13:09:36;;;;;;;0.10;0.10;;;10.20;90.20;;;;;;5072164;28;20031;-74
2023/04/01 13:12:22;;;;;;;0.32;0.32;;;10.10;90.10;;;;;;5070470;28;20025;-76
2023/04/01 13:15:03;;;;;;;0.52;0.35;;;10.00;90.60;;;;;;5060876;28;20066;-75
2023/04/01 13:18:06;;;;;;;0.32;0.20;;;10.00;90.70;;;;;;5067397;28;20038;-75
2023/04/01 13:21:01;;;;;;;;;;;9.90;90.60;;;;;;5071841;28;20033;-75
2023/04/01 13:23:39;;;;;;;0.30;0.30;;;9.90;90.70;;;;;;5033833;28;19958;-76
2023/04/01 13:26:22;;;;;;;0.60;0.50;;;10.00;90.90;;;;;;5051520;28;20021;-76
2023/04/01 13:29:00;;;;;;;0.30;0.20;;;9.90;90.80;;;;;;5034348;28;20489;-75
2023/04/01 13:31:35;;;;;;;1.10;0.38;;;9.90;91.00;;;;;;5055447;28;20024;-75
2023/04/01 13:34:09;;;;;;;0.40;0.40;;;10.00;91.20;;;;;;5053177;28;20025;-76
2023/04/01 13:36:44;;;;;;;0.70;0.57;;;10.00;91.20;;;;;;5052324;28;20029;-75
2023/04/01 13:39:41;;;;;;;0.20;0.20;;;10.10;91.20;;;;;;5051771;28;20025;-75
2023/04/01 13:42:51;;;;;;;1.67;0.30;;;10.00;91.40;;;;;;5034595;28;20025;-75
2023/04/01 13:45:24;;;;;;;0.40;0.30;;;10.00;91.40;;;;;;5061374;28;20021;-75